^^
Station Historical Data
Daily Summary for March 2, 2019 Units:  English    Metric   Both
« Previous Day
Next Day »
Daily Weekly Monthly Yearly Custom
  High: Low: Average:
Temperature: 1.9 °F -16.3 °F -7.5 °F
Dew Point: -2.7 °F -21.9 °F -13 °F
Humidity: 82% 68% 76%
Wind Speed: 23.0mph 5.0mph 11.3mph
Wind Gust: 27.0mph - -
Wind- - WNW
Pressure: 30.69 in 30.42 in -
Precipitation: 0.46 in    
Historical Graphs
 
 
Tabular Data for March 2, 2019
Time Temperature Dew Point Pressure Wind Wind Speed Wind Gust Humidity Rainfall Rate (Hourly) solar Conditions
00:04 1.9 °F -2.8 °F 30.42 in NW 9.0 mph 12.0 mph 80% 0.00 in 0.00 W/m2
00:09 1.7 °F -3.0 °F 30.42 in WNW 9.0 mph 12.0 mph 80% 0.00 in 0.00 W/m2
00:14 1.6 °F -3.1 °F 30.42 in WNW 11.0 mph 14.0 mph 80% 0.00 in 0.00 W/m2
00:19 1.4 °F -3.3 °F 30.43 in WNW 10.0 mph 14.0 mph 80% 0.00 in 0.00 W/m2
00:24 1.5 °F -3.0 °F 30.43 in NW 10.0 mph 14.0 mph 81% 0.00 in 0.00 W/m2
00:29 1.8 °F -2.7 °F 30.43 in WNW 11.0 mph 16.0 mph 81% 0.00 in 0.00 W/m2
00:34 1.8 °F -2.7 °F 30.44 in NNW 9.0 mph 16.0 mph 81% 0.00 in 0.00 W/m2
00:39 1.5 °F -3.0 °F 30.44 in NW 8.0 mph 14.0 mph 81% 0.46 in 0.00 W/m2
00:44 0.9 °F -3.8 °F 30.44 in WNW 9.0 mph 13.0 mph 80% 0.46 in 0.00 W/m2
00:49 0.2 °F -4.5 °F 30.45 in WNW 9.0 mph 13.0 mph 80% 0.46 in 0.00 W/m2
00:54 -0.1 °F -4.5 °F 30.45 in NW 9.0 mph 12.0 mph 81% 0.46 in 0.00 W/m2
00:59 -0.1 °F -4.3 °F 30.45 in WNW 8.0 mph 13.0 mph 82% 0.46 in 0.00 W/m2
01:04 0.0 °F -4.2 °F 30.45 in WNW 7.0 mph 14.0 mph 82% 0.46 in 0.00 W/m2
01:09 -0.2 °F -4.6 °F 30.46 in WNW 8.0 mph 14.0 mph 81% 0.46 in 0.00 W/m2
01:14 -0.1 °F -4.3 °F 30.46 in West 13.0 mph 13.0 mph 82% 0.46 in 0.00 W/m2
01:19 0.0 °F -4.2 °F 30.46 in WNW 10.0 mph 17.0 mph 82% 0.46 in 0.00 W/m2
01:24 -0.1 °F -4.5 °F 30.46 in NW 16.0 mph 17.0 mph 81% 0.46 in 0.00 W/m2
01:29 -0.3 °F -4.7 °F 30.46 in WNW 16.0 mph 19.0 mph 81% 0.46 in 0.00 W/m2
01:34 -0.3 °F -4.7 °F 30.47 in WNW 15.0 mph 19.0 mph 81% 0.46 in 0.00 W/m2
01:39 -0.3 °F -4.7 °F 30.47 in WNW 9.0 mph 19.0 mph 81% 0.00 in 0.00 W/m2
01:44 -0.2 °F -4.6 °F 30.48 in WNW 10.0 mph 16.0 mph 81% 0.00 in 0.00 W/m2
01:49 -0.1 °F -4.5 °F 30.48 in NW 8.0 mph 16.0 mph 81% 0.00 in 0.00 W/m2
01:54 -0.2 °F -4.6 °F 30.49 in WNW 11.0 mph 16.0 mph 81% 0.00 in 0.00 W/m2
01:59 -0.3 °F -4.7 °F 30.49 in WNW 17.0 mph 17.0 mph 81% 0.00 in 0.00 W/m2
02:04 -0.5 °F -4.9 °F 30.49 in WNW 15.0 mph 18.0 mph 81% 0.00 in 0.00 W/m2
02:09 -0.8 °F -5.5 °F 30.49 in WNW 18.0 mph 19.0 mph 80% 0.00 in 0.00 W/m2
02:14 -1.0 °F -5.7 °F 30.50 in NW 13.0 mph 19.0 mph 80% 0.00 in 0.00 W/m2
02:19 -1.2 °F -5.9 °F 30.50 in WNW 12.0 mph 22.0 mph 80% 0.00 in 0.00 W/m2
02:24 -1.6 °F -6.3 °F 30.50 in NW 10.0 mph 22.0 mph 80% 0.00 in 0.00 W/m2
02:29 -1.8 °F -6.5 °F 30.50 in West 10.0 mph 18.0 mph 80% 0.00 in 0.00 W/m2
02:34 -2.1 °F -6.8 °F 30.50 in WNW 14.0 mph 19.0 mph 80% 0.00 in 0.00 W/m2
02:39 -2.5 °F -7.1 °F 30.50 in NW 13.0 mph 19.0 mph 80% 0.00 in 0.00 W/m2
02:44 -2.7 °F -7.3 °F 30.50 in WNW 11.0 mph 18.0 mph 80% 0.00 in 0.00 W/m2
02:49 -2.9 °F -7.5 °F 30.50 in West 14.0 mph 16.0 mph 80% 0.00 in 0.00 W/m2
02:54 -3.1 °F -7.7 °F 30.50 in West 10.0 mph 16.0 mph 80% 0.00 in 0.00 W/m2
02:59 -3.2 °F -7.8 °F 30.51 in West 11.0 mph 17.0 mph 80% 0.00 in 0.00 W/m2
03:04 -3.5 °F -8.1 °F 30.51 in WNW 13.0 mph 17.0 mph 80% 0.00 in 0.00 W/m2
03:09 -3.7 °F -8.3 °F 30.51 in WNW 8.0 mph 15.0 mph 80% 0.00 in 0.00 W/m2
03:14 -4.1 °F -8.7 °F 30.51 in WNW 10.0 mph 16.0 mph 80% 0.00 in 0.00 W/m2
03:19 -4.4 °F -9.0 °F 30.51 in WNW 10.0 mph 16.0 mph 80% 0.00 in 0.00 W/m2
03:24 -4.4 °F -8.8 °F 30.52 in West 11.0 mph 16.0 mph 81% 0.00 in 0.00 W/m2
03:29 -4.5 °F -9.1 °F 30.52 in NW 10.0 mph 16.0 mph 80% 0.00 in 0.00 W/m2
03:34 -4.5 °F -9.1 °F 30.52 in WNW 13.0 mph 15.0 mph 80% 0.00 in 0.00 W/m2
03:39 -4.7 °F -9.3 °F 30.52 in WNW 10.0 mph 15.0 mph 80% 0.00 in 0.00 W/m2
03:44 -4.9 °F -9.5 °F 30.52 in WNW 10.0 mph 17.0 mph 80% 0.00 in 0.00 W/m2
03:49 -4.7 °F -9.0 °F 30.51 in NW 12.0 mph 17.0 mph 81% 0.00 in 0.00 W/m2
03:54 -4.7 °F -9.0 °F 30.51 in West 11.0 mph 18.0 mph 81% 0.00 in 0.00 W/m2
03:59 -4.7 °F -9.3 °F 30.51 in WNW 10.0 mph 18.0 mph 80% 0.00 in 0.00 W/m2
04:04 -4.8 °F -9.4 °F 30.51 in NW 14.0 mph 18.0 mph 80% 0.00 in 0.00 W/m2
04:09 -4.9 °F -9.5 °F 30.52 in NW 10.0 mph 18.0 mph 80% 0.00 in 0.00 W/m2
04:14 -5.0 °F -9.6 °F 30.51 in NW 10.0 mph 18.0 mph 80% 0.00 in 0.00 W/m2
04:19 -5.0 °F -9.6 °F 30.52 in WNW 10.0 mph 17.0 mph 80% 0.00 in 0.00 W/m2
04:24 -5.3 °F -9.9 °F 30.52 in WNW 10.0 mph 17.0 mph 80% 0.00 in 0.00 W/m2
04:29 -5.6 °F -10.2 °F 30.52 in WNW 9.0 mph 16.0 mph 80% 0.00 in 0.00 W/m2
04:34 -5.6 °F -9.9 °F 30.51 in WNW 14.0 mph 17.0 mph 81% 0.00 in 0.00 W/m2
04:39 -5.6 °F -9.9 °F 30.52 in WNW 12.0 mph 20.0 mph 81% 0.00 in 0.00 W/m2
04:44 -5.5 °F -9.8 °F 30.52 in NW 13.0 mph 20.0 mph 81% 0.00 in 0.00 W/m2
04:49 -5.7 °F -10.0 °F 30.52 in WNW 9.0 mph 18.0 mph 81% 0.00 in 0.00 W/m2
04:54 -6.0 °F -10.3 °F 30.53 in NW 10.0 mph 17.0 mph 81% 0.00 in 0.00 W/m2
04:59 -6.1 °F -10.4 °F 30.53 in NW 9.0 mph 15.0 mph 81% 0.00 in 0.00 W/m2
05:04 -6.3 °F -10.6 °F 30.53 in WNW 6.0 mph 15.0 mph 81% 0.00 in 0.00 W/m2
05:09 -6.6 °F -10.9 °F 30.54 in NW 11.0 mph 12.0 mph 81% 0.00 in 0.00 W/m2
05:14 -6.4 °F -10.7 °F 30.54 in NW 9.0 mph 12.0 mph 81% 0.00 in 0.00 W/m2
05:19 -6.4 °F -10.7 °F 30.55 in WNW 7.0 mph 12.0 mph 81% 0.00 in 0.00 W/m2
05:24 -6.6 °F -10.9 °F 30.55 in WNW 5.0 mph 10.0 mph 81% 0.00 in 0.00 W/m2
05:29 -6.6 °F -10.9 °F 30.55 in WNW 11.0 mph 11.0 mph 81% 0.00 in 0.00 W/m2
05:34 -6.5 °F -10.8 °F 30.55 in WNW 11.0 mph 11.0 mph 81% 0.00 in 0.00 W/m2
05:39 -6.4 °F -10.7 °F 30.55 in NW 10.0 mph 14.0 mph 81% 0.00 in 0.00 W/m2
05:44 -6.2 °F -10.3 °F 30.56 in WNW 10.0 mph 14.0 mph 82% 0.00 in 0.00 W/m2
05:49 -6.0 °F -10.3 °F 30.56 in WNW 10.0 mph 15.0 mph 81% 0.00 in 0.00 W/m2
05:54 -6.0 °F -10.3 °F 30.56 in NW 8.0 mph 15.0 mph 81% 0.00 in 0.00 W/m2
05:59 -6.1 °F -10.4 °F 30.56 in WNW 9.0 mph 13.0 mph 81% 0.00 in 0.00 W/m2
06:04 -6.2 °F -10.5 °F 30.57 in NW 9.0 mph 14.0 mph 81% 0.00 in 0.00 W/m2
06:09 -6.2 °F -10.5 °F 30.58 in WNW 6.0 mph 14.0 mph 81% 0.00 in 0.00 W/m2
06:14 -5.9 °F -10.2 °F 30.58 in NW 7.0 mph 14.0 mph 81% 0.00 in 0.00 W/m2
06:19 -5.7 °F -10.0 °F 30.59 in WNW 11.0 mph 14.0 mph 81% 0.00 in 0.00 W/m2
06:24 -5.8 °F -10.4 °F 30.59 in WNW 5.0 mph 14.0 mph 80% 0.00 in 0.00 W/m2
06:29 -6.3 °F -10.9 °F 30.59 in NW 6.0 mph 12.0 mph 80% 0.00 in 0.00 W/m2
06:34 -6.6 °F -11.2 °F 30.60 in WNW 9.0 mph 13.0 mph 80% 0.00 in 0.00 W/m2
06:39 -6.8 °F -11.4 °F 30.60 in NW 6.0 mph 15.0 mph 80% 0.00 in 0.00 W/m2
06:44 -6.9 °F -11.4 °F 30.60 in WNW 6.0 mph 15.0 mph 80% 0.00 in 0.00 W/m2
06:49 -7.1 °F -11.9 °F 30.60 in WNW 7.0 mph 14.0 mph 79% 0.00 in 0.00 W/m2
06:54 -7.1 °F -11.9 °F 30.61 in NW 9.0 mph 14.0 mph 79% 0.00 in 0.00 W/m2
06:59 -7.2 °F -12.0 °F 30.61 in WNW 7.0 mph 11.0 mph 79% 0.00 in 0.00 W/m2
07:04 -7.3 °F -12.1 °F 30.61 in NW 5.0 mph 11.0 mph 79% 0.00 in 0.00 W/m2
07:09 -7.6 °F -12.4 °F 30.61 in NW 7.0 mph 10.0 mph 79% 0.00 in 0.00 W/m2
07:14 -7.7 °F -12.5 °F 30.61 in NW 8.0 mph 10.0 mph 79% 0.00 in 0.00 W/m2
07:19 -7.8 °F -12.6 °F 30.61 in NW 7.0 mph 10.0 mph 79% 0.00 in 5.00 W/m2
07:24 -7.7 °F -12.5 °F 30.61 in NW 5.0 mph 10.0 mph 79% 0.00 in 7.00 W/m2
07:29 -7.3 °F -11.8 °F 30.62 in NW 9.0 mph 13.0 mph 80% 0.00 in 9.00 W/m2
07:34 -7.2 °F -12.0 °F 30.62 in NW 7.0 mph 14.0 mph 79% 0.00 in 14.00 W/m2
07:39 -7.0 °F -11.8 °F 30.62 in WNW 14.0 mph 17.0 mph 79% 0.00 in 19.00 W/m2
07:44 -6.9 °F -11.7 °F 30.62 in NW 13.0 mph 17.0 mph 79% 0.00 in 28.00 W/m2
07:49 -7.0 °F -12.1 °F 30.62 in NW 13.0 mph 16.0 mph 78% 0.00 in 37.00 W/m2
07:54 -7.1 °F -12.2 °F 30.62 in NW 14.0 mph 18.0 mph 78% 0.00 in 46.00 W/m2
07:59 -7.1 °F -12.2 °F 30.63 in NW 12.0 mph 19.0 mph 78% 0.00 in 54.00 W/m2
08:04 -7.2 °F -12.5 °F 30.63 in NW 13.0 mph 20.0 mph 77% 0.00 in 70.00 W/m2
08:09 -7.3 °F -12.6 °F 30.63 in WNW 15.0 mph 20.0 mph 77% 0.00 in 76.00 W/m2
08:14 -7.4 °F -12.7 °F 30.63 in NW 21.0 mph 21.0 mph 77% 0.00 in 91.00 W/m2
08:19 -7.5 °F -12.8 °F 30.63 in WNW 15.0 mph 23.0 mph 77% 0.00 in 98.00 W/m2
08:24 -7.6 °F -12.9 °F 30.64 in NW 14.0 mph 23.0 mph 77% 0.00 in 104.00 W/m2
08:29 -7.8 °F -13.4 °F 30.64 in WNW 15.0 mph 20.0 mph 76% 0.00 in 118.00 W/m2
08:34 -7.8 °F -13.4 °F 30.64 in NW 13.0 mph 20.0 mph 76% 0.00 in 141.00 W/m2
08:39 -7.8 °F -13.4 °F 30.64 in WNW 12.0 mph 19.0 mph 76% 0.00 in 148.00 W/m2
08:44 -7.8 °F -13.4 °F 30.64 in NW 13.0 mph 19.0 mph 76% 0.00 in 153.00 W/m2
08:49 -8.0 °F -13.5 °F 30.65 in NW 14.0 mph 20.0 mph 76% 0.00 in 174.00 W/m2
08:54 -8.1 °F -13.6 °F 30.65 in NW 16.0 mph 21.0 mph 76% 0.00 in 186.00 W/m2
08:59 -8.1 °F -13.6 °F 30.65 in WNW 19.0 mph 21.0 mph 76% 0.00 in 195.00 W/m2
09:04 -8.1 °F -13.6 °F 30.65 in NW 14.0 mph 22.0 mph 76% 0.00 in 221.00 W/m2
09:09 -8.1 °F -13.6 °F 30.65 in NW 19.0 mph 22.0 mph 76% 0.00 in 239.00 W/m2
09:14 -8.0 °F -13.5 °F 30.65 in NNW 15.0 mph 22.0 mph 76% 0.00 in 255.00 W/m2
09:19 -7.9 °F -13.5 °F 30.65 in WNW 12.0 mph 21.0 mph 76% 0.00 in 278.00 W/m2
09:24 -7.7 °F -13.3 °F 30.66 in NW 10.0 mph 21.0 mph 76% 0.00 in 285.00 W/m2
09:29 -7.5 °F -13.1 °F 30.66 in WNW 15.0 mph 21.0 mph 76% 0.00 in 294.00 W/m2
09:34 -7.5 °F -13.1 °F 30.66 in WNW 14.0 mph 18.0 mph 76% 0.00 in 320.00 W/m2
09:39 -7.3 °F -12.9 °F 30.66 in NW 12.0 mph 17.0 mph 76% 0.00 in 376.00 W/m2
09:44 -7.2 °F -12.8 °F 30.66 in NW 11.0 mph 16.0 mph 76% 0.00 in 341.00 W/m2
09:49 -7.4 °F -13.0 °F 30.67 in NW 16.0 mph 18.0 mph 76% 0.00 in 336.00 W/m2
09:54 -7.5 °F -13.1 °F 30.66 in WNW 12.0 mph 21.0 mph 76% 0.00 in 334.00 W/m2
09:59 -7.5 °F -12.8 °F 30.67 in NW 16.0 mph 21.0 mph 77% 0.00 in 318.00 W/m2
10:04 -7.5 °F -12.8 °F 30.67 in NW 12.0 mph 21.0 mph 77% 0.00 in 295.00 W/m2
10:09 -7.5 °F -12.8 °F 30.67 in NW 11.0 mph 21.0 mph 77% 0.00 in 338.00 W/m2
10:14 -7.3 °F -12.6 °F 30.68 in WNW 11.0 mph 18.0 mph 77% 0.00 in 381.00 W/m2
10:19 -7.2 °F -12.5 °F 30.68 in WNW 11.0 mph 16.0 mph 77% 0.00 in 462.00 W/m2
10:24 -7.2 °F -12.5 °F 30.68 in WNW 14.0 mph 18.0 mph 77% 0.00 in 431.00 W/m2
10:29 -7.3 °F -12.6 °F 30.68 in NW 14.0 mph 18.0 mph 77% 0.00 in 403.00 W/m2
10:34 -7.2 °F -12.5 °F 30.68 in NW 10.0 mph 17.0 mph 77% 0.00 in 441.00 W/m2
10:39 -7.0 °F -12.3 °F 30.68 in WNW 19.0 mph 19.0 mph 77% 0.00 in 550.00 W/m2
10:44 -7.0 °F -12.6 °F 30.68 in WNW 10.0 mph 21.0 mph 76% 0.00 in 461.00 W/m2
10:49 -7.1 °F -12.7 °F 30.68 in WNW 13.0 mph 21.0 mph 76% 0.00 in 427.00 W/m2
10:54 -7.3 °F -12.9 °F 30.68 in NW 10.0 mph 17.0 mph 76% 0.00 in 466.00 W/m2
10:59 -7.3 °F -12.9 °F 30.69 in WNW 10.0 mph 18.0 mph 76% 0.00 in 473.00 W/m2
11:04 -7.4 °F -13.2 °F 30.69 in WNW 12.0 mph 18.0 mph 75% 0.00 in 482.00 W/m2
11:09 -7.3 °F -13.1 °F 30.69 in NW 9.0 mph 17.0 mph 75% 0.00 in 635.00 W/m2
11:14 -6.9 °F -13.0 °F 30.69 in WNW 16.0 mph 17.0 mph 74% 0.00 in 577.00 W/m2
11:19 -7.1 °F -13.2 °F 30.69 in WNW 16.0 mph 18.0 mph 74% 0.00 in 555.00 W/m2
11:24 -7.1 °F -13.2 °F 30.69 in NW 11.0 mph 18.0 mph 74% 0.00 in 606.00 W/m2
11:29 -6.8 °F -12.9 °F 30.69 in NW 6.0 mph 17.0 mph 74% 0.00 in 635.00 W/m2
11:34 -6.5 °F -12.6 °F 30.69 in WNW 15.0 mph 16.0 mph 74% 0.00 in 578.00 W/m2
11:39 -6.3 °F -12.4 °F 30.69 in WNW 12.0 mph 17.0 mph 74% 0.00 in 564.00 W/m2
11:44 -6.4 °F -12.5 °F 30.69 in West 13.0 mph 17.0 mph 74% 0.00 in 522.00 W/m2
11:49 -6.4 °F -12.3 °F 30.69 in WNW 9.0 mph 17.0 mph 75% 0.00 in 617.00 W/m2
11:54 -6.3 °F -12.2 °F 30.69 in WNW 9.0 mph 16.0 mph 75% 0.00 in 603.00 W/m2
11:59 -6.1 °F -12.0 °F 30.68 in WNW 14.0 mph 17.0 mph 75% 0.00 in 601.00 W/m2
12:04 -5.9 °F -12.0 °F 30.69 in NW 13.0 mph 18.0 mph 74% 0.00 in 626.00 W/m2
12:09 -5.6 °F -11.8 °F 30.69 in WNW 15.0 mph 18.0 mph 74% 0.00 in 506.00 W/m2
12:14 -5.5 °F -11.4 °F 30.69 in WNW 12.0 mph 18.0 mph 75% 0.00 in 617.00 W/m2
12:19 -5.6 °F -11.5 °F 30.69 in WNW 15.0 mph 18.0 mph 75% 0.00 in 550.00 W/m2
12:24 -5.9 °F -11.8 °F 30.69 in WNW 14.0 mph 18.0 mph 75% 0.00 in 617.00 W/m2
12:29 -6.3 °F -12.2 °F 30.68 in NW 13.0 mph 21.0 mph 75% 0.00 in 654.00 W/m2
12:34 -6.4 °F -12.3 °F 30.69 in WNW 12.0 mph 21.0 mph 75% 0.00 in 666.00 W/m2
12:39 -6.6 °F -12.5 °F 30.69 in West 20.0 mph 20.0 mph 75% 0.00 in 659.00 W/m2
12:44 -6.5 °F -12.1 °F 30.69 in NW 8.0 mph 20.0 mph 76% 0.00 in 643.00 W/m2
12:49 -6.3 °F -11.9 °F 30.69 in NW 15.0 mph 20.0 mph 76% 0.00 in 654.00 W/m2
12:54 -6.4 °F -12.3 °F 30.69 in WNW 8.0 mph 18.0 mph 75% 0.00 in 656.00 W/m2
12:59 -6.3 °F -12.2 °F 30.69 in WNW 15.0 mph 18.0 mph 75% 0.00 in 657.00 W/m2
13:04 -6.5 °F -12.4 °F 30.68 in WNW 9.0 mph 18.0 mph 75% 0.00 in 656.00 W/m2
13:09 -6.3 °F -12.2 °F 30.68 in WNW 17.0 mph 19.0 mph 75% 0.00 in 656.00 W/m2
13:14 -6.1 °F -12.2 °F 30.68 in NW 15.0 mph 19.0 mph 74% 0.00 in 654.00 W/m2
13:19 -5.9 °F -12.0 °F 30.68 in WNW 12.0 mph 17.0 mph 74% 0.00 in 652.00 W/m2
13:24 -6.0 °F -12.1 °F 30.68 in WNW 11.0 mph 18.0 mph 74% 0.00 in 652.00 W/m2
13:29 -6.1 °F -12.5 °F 30.69 in NW 12.0 mph 18.0 mph 73% 0.00 in 649.00 W/m2
13:34 -6.1 °F -12.5 °F 30.68 in WNW 15.0 mph 18.0 mph 73% 0.00 in 656.00 W/m2
13:39 -5.9 °F -12.0 °F 30.68 in WNW 10.0 mph 18.0 mph 74% 0.00 in 649.00 W/m2
13:44 -5.8 °F -12.2 °F 30.68 in WNW 17.0 mph 20.0 mph 73% 0.00 in 643.00 W/m2
13:49 -6.1 °F -12.5 °F 30.67 in WNW 15.0 mph 20.0 mph 73% 0.00 in 638.00 W/m2
13:54 -6.0 °F -12.4 °F 30.67 in WNW 16.0 mph 21.0 mph 73% 0.00 in 649.00 W/m2
13:59 -6.0 °F -12.4 °F 30.67 in NW 18.0 mph 21.0 mph 73% 0.00 in 642.00 W/m2
14:04 -5.9 °F -12.3 °F 30.67 in WNW 14.0 mph 22.0 mph 73% 0.00 in 626.00 W/m2
14:09 -5.8 °F -12.2 °F 30.67 in WNW 14.0 mph 22.0 mph 73% 0.00 in 608.00 W/m2
14:14 -5.8 °F -12.2 °F 30.67 in WNW 13.0 mph 21.0 mph 73% 0.00 in 613.00 W/m2
14:19 -6.0 °F -12.7 °F 30.67 in WNW 16.0 mph 22.0 mph 72% 0.00 in 605.00 W/m2
14:24 -6.0 °F -12.7 °F 30.67 in WNW 18.0 mph 22.0 mph 72% 0.00 in 599.00 W/m2
14:29 -5.7 °F -12.1 °F 30.67 in WNW 11.0 mph 22.0 mph 73% 0.00 in 598.00 W/m2
14:34 -5.9 °F -12.6 °F 30.67 in NW 14.0 mph 22.0 mph 72% 0.00 in 584.00 W/m2
14:39 -6.0 °F -13.0 °F 30.67 in WNW 14.0 mph 23.0 mph 71% 0.00 in 580.00 W/m2
14:44 -6.1 °F -13.1 °F 30.67 in West 18.0 mph 23.0 mph 71% 0.00 in 571.00 W/m2
14:49 -6.1 °F -12.8 °F 30.67 in NW 16.0 mph 22.0 mph 72% 0.00 in 552.00 W/m2
14:54 -6.1 °F -12.8 °F 30.67 in WNW 15.0 mph 23.0 mph 72% 0.00 in 550.00 W/m2
14:59 -6.1 °F -13.1 °F 30.67 in WNW 16.0 mph 25.0 mph 71% 0.00 in 545.00 W/m2
15:04 -6.2 °F -13.2 °F 30.67 in NW 11.0 mph 25.0 mph 71% 0.00 in 534.00 W/m2
15:09 -6.2 °F -13.2 °F 30.67 in WNW 16.0 mph 23.0 mph 71% 0.00 in 531.00 W/m2
15:14 -6.4 °F -13.4 °F 30.67 in WNW 19.0 mph 23.0 mph 71% 0.00 in 519.00 W/m2
15:19 -6.3 °F -13.3 °F 30.67 in WNW 23.0 mph 23.0 mph 71% 0.00 in 510.00 W/m2
15:24 -6.4 °F -13.6 °F 30.67 in WNW 15.0 mph 24.0 mph 70% 0.00 in 492.00 W/m2
15:29 -6.5 °F -13.7 °F 30.67 in NNW 14.0 mph 27.0 mph 70% 0.00 in 485.00 W/m2
15:34 -6.4 °F -13.6 °F 30.67 in NW 14.0 mph 27.0 mph 70% 0.00 in 473.00 W/m2
15:39 -6.4 °F -13.6 °F 30.67 in NW 18.0 mph 23.0 mph 70% 0.00 in 462.00 W/m2
15:44 -6.4 °F -13.6 °F 30.67 in NW 18.0 mph 23.0 mph 70% 0.00 in 450.00 W/m2
15:49 -6.6 °F -14.1 °F 30.67 in NW 11.0 mph 23.0 mph 69% 0.00 in 439.00 W/m2
15:54 -6.6 °F -14.1 °F 30.67 in WNW 16.0 mph 22.0 mph 69% 0.00 in 404.00 W/m2
15:59 -6.6 °F -14.1 °F 30.67 in WNW 12.0 mph 23.0 mph 69% 0.00 in 392.00 W/m2
16:04 -6.7 °F -14.2 °F 30.66 in NW 13.0 mph 23.0 mph 69% 0.00 in 394.00 W/m2
16:09 -6.6 °F -14.1 °F 30.66 in NW 15.0 mph 21.0 mph 69% 0.00 in 381.00 W/m2
16:14 -6.7 °F -14.2 °F 30.66 in NW 13.0 mph 21.0 mph 69% 0.00 in 367.00 W/m2
16:19 -6.6 °F -14.1 °F 30.66 in NW 14.0 mph 19.0 mph 69% 0.00 in 357.00 W/m2
16:24 -6.6 °F -14.1 °F 30.66 in WNW 14.0 mph 19.0 mph 69% 0.00 in 338.00 W/m2
16:29 -6.6 °F -14.1 °F 30.66 in WNW 14.0 mph 20.0 mph 69% 0.00 in 323.00 W/m2
16:34 -6.7 °F -14.5 °F 30.66 in WNW 12.0 mph 22.0 mph 68% 0.00 in 308.00 W/m2
16:39 -6.8 °F -14.6 °F 30.65 in WNW 18.0 mph 24.0 mph 68% 0.00 in 292.00 W/m2
16:44 -6.8 °F -14.6 °F 30.65 in NW 11.0 mph 24.0 mph 68% 0.00 in 272.00 W/m2
16:49 -6.9 °F -14.7 °F 30.65 in WNW 15.0 mph 19.0 mph 68% 0.00 in 255.00 W/m2
16:54 -7.0 °F -14.8 °F 30.65 in NW 15.0 mph 19.0 mph 68% 0.00 in 239.00 W/m2
16:59 -7.0 °F -14.8 °F 30.65 in WNW 12.0 mph 18.0 mph 68% 0.00 in 218.00 W/m2
17:04 -7.0 °F -14.8 °F 30.65 in WNW 14.0 mph 17.0 mph 68% 0.00 in 200.00 W/m2
17:09 -7.1 °F -14.6 °F 30.65 in NW 12.0 mph 17.0 mph 69% 0.00 in 183.00 W/m2
17:14 -7.1 °F -14.6 °F 30.65 in NW 10.0 mph 17.0 mph 69% 0.00 in 163.00 W/m2
17:19 -7.3 °F -14.8 °F 30.66 in WNW 10.0 mph 17.0 mph 69% 0.00 in 148.00 W/m2
17:24 -7.3 °F -14.8 °F 30.66 in WNW 12.0 mph 18.0 mph 69% 0.00 in 128.00 W/m2
17:29 -7.5 °F -15.0 °F 30.66 in WNW 11.0 mph 19.0 mph 69% 0.00 in 107.00 W/m2
17:34 -7.6 °F -15.1 °F 30.66 in WNW 13.0 mph 19.0 mph 69% 0.00 in 95.00 W/m2
17:39 -7.7 °F -15.2 °F 30.65 in NW 9.0 mph 17.0 mph 69% 0.00 in 81.00 W/m2
17:44 -7.9 °F -15.4 °F 30.65 in WNW 13.0 mph 16.0 mph 69% 0.00 in 65.00 W/m2
17:49 -8.0 °F -15.5 °F 30.65 in WNW 7.0 mph 16.0 mph 69% 0.00 in 51.00 W/m2
17:54 -8.2 °F -15.4 °F 30.65 in WNW 10.0 mph 16.0 mph 70% 0.00 in 40.00 W/m2
17:59 -8.4 °F -15.6 °F 30.65 in WNW 9.0 mph 16.0 mph 70% 0.00 in 30.00 W/m2
18:04 -8.6 °F -15.8 °F 30.65 in WNW 7.0 mph 13.0 mph 70% 0.00 in 25.00 W/m2
18:09 -8.9 °F -16.0 °F 30.65 in WNW 7.0 mph 12.0 mph 70% 0.00 in 21.00 W/m2
18:14 -9.1 °F -16.0 °F 30.65 in West 8.0 mph 11.0 mph 71% 0.00 in 18.00 W/m2
18:19 -9.4 °F -16.3 °F 30.65 in WNW 10.0 mph 12.0 mph 71% 0.00 in 14.00 W/m2
18:24 -9.6 °F -16.4 °F 30.65 in West 9.0 mph 12.0 mph 71% 0.00 in 11.00 W/m2
18:29 -9.9 °F -16.7 °F 30.65 in WNW 6.0 mph 12.0 mph 71% 0.00 in 7.00 W/m2
18:34 -10.1 °F -16.7 °F 30.65 in WNW 7.0 mph 12.0 mph 72% 0.00 in 5.00 W/m2
18:39 -10.1 °F -16.7 °F 30.65 in WNW 10.0 mph 12.0 mph 72% 0.00 in 0.00 W/m2
18:44 -10.2 °F -16.5 °F 30.65 in West 6.0 mph 12.0 mph 73% 0.00 in 0.00 W/m2
18:49 -10.7 °F -17.0 °F 30.65 in West 6.0 mph 12.0 mph 73% 0.00 in 0.00 W/m2
18:54 -11.0 °F -17.0 °F 30.65 in West 9.0 mph 10.0 mph 74% 0.00 in 0.00 W/m2
18:59 -11.1 °F -16.8 °F 30.65 in West 8.0 mph 10.0 mph 75% 0.00 in 0.00 W/m2
19:04 -11.3 °F -16.8 °F 30.65 in West 8.0 mph 10.0 mph 76% 0.00 in 0.00 W/m2
19:09 -11.5 °F -16.7 °F 30.65 in West 8.0 mph 10.0 mph 77% 0.00 in 0.00 W/m2
19:14 -11.6 °F -16.8 °F 30.66 in West 8.0 mph 10.0 mph 77% 0.00 in 0.00 W/m2
19:19 -11.9 °F -16.8 °F 30.66 in West 8.0 mph 10.0 mph 78% 0.00 in 0.00 W/m2
19:24 -11.9 °F -16.8 °F 30.66 in West 8.0 mph 10.0 mph 78% 0.00 in 0.00 W/m2
19:29 -11.5 °F -15.9 °F 30.65 in WSW 10.0 mph 11.0 mph 80% 0.00 in 0.00 W/m2
19:34 -11.6 °F -16.3 °F 30.66 in West 10.0 mph 11.0 mph 79% 0.00 in 0.00 W/m2
19:39 -11.8 °F -16.7 °F 30.66 in West 9.0 mph 11.0 mph 78% 0.00 in 0.00 W/m2
19:44 -12.1 °F -17.0 °F 30.66 in WSW 8.0 mph 10.0 mph 78% 0.00 in 0.00 W/m2
19:49 -12.3 °F -17.2 °F 30.65 in West 10.0 mph 11.0 mph 78% 0.00 in 0.00 W/m2
19:54 -12.3 °F -17.2 °F 30.66 in West 8.0 mph 11.0 mph 78% 0.00 in 0.00 W/m2
19:59 -12.0 °F -16.9 °F 30.66 in West 9.0 mph 11.0 mph 78% 0.00 in 0.00 W/m2
20:04 -11.8 °F -17.0 °F 30.66 in West 10.0 mph 12.0 mph 77% 0.00 in 0.00 W/m2
20:09 -11.8 °F -17.0 °F 30.66 in West 8.0 mph 12.0 mph 77% 0.00 in 0.00 W/m2
20:14 -12.1 °F -17.5 °F 30.66 in West 9.0 mph 11.0 mph 76% 0.00 in 0.00 W/m2
20:19 -12.3 °F -17.7 °F 30.66 in West 9.0 mph 11.0 mph 76% 0.00 in 0.00 W/m2
20:24 -12.5 °F -17.9 °F 30.66 in West 7.0 mph 10.0 mph 76% 0.00 in 0.00 W/m2
20:29 -12.8 °F -18.2 °F 30.66 in WSW 7.0 mph 10.0 mph 76% 0.00 in 0.00 W/m2
20:34 -13.3 °F -18.7 °F 30.66 in West 8.0 mph 9.0 mph 76% 0.00 in 0.00 W/m2
20:39 -13.9 °F -19.5 °F 30.66 in WSW 6.0 mph 8.0 mph 75% 0.00 in 0.00 W/m2
20:44 -14.0 °F -19.4 °F 30.66 in West 7.0 mph 8.0 mph 76% 0.00 in 0.00 W/m2
20:49 -13.8 °F -18.9 °F 30.66 in West 7.0 mph 9.0 mph 77% 0.00 in 0.00 W/m2
20:54 -13.6 °F -18.7 °F 30.66 in West 9.0 mph 10.0 mph 77% 0.00 in 0.00 W/m2
20:59 -13.9 °F -19.3 °F 30.66 in WNW 8.0 mph 11.0 mph 76% 0.00 in 0.00 W/m2
21:04 -14.0 °F -19.4 °F 30.65 in WNW 11.0 mph 14.0 mph 76% 0.00 in 0.00 W/m2
21:09 -13.6 °F -18.7 °F 30.66 in WNW 9.0 mph 14.0 mph 77% 0.00 in 0.00 W/m2
21:14 -13.6 °F -19.0 °F 30.66 in West 11.0 mph 14.0 mph 76% 0.00 in 0.00 W/m2
21:19 -14.3 °F -19.9 °F 30.66 in West 11.0 mph 14.0 mph 75% 0.00 in 0.00 W/m2
21:24 -14.5 °F -20.1 °F 30.66 in West 10.0 mph 14.0 mph 75% 0.00 in 0.00 W/m2
21:29 -14.7 °F -20.1 °F 30.66 in West 7.0 mph 11.0 mph 76% 0.00 in 0.00 W/m2
21:34 -14.9 °F -20.5 °F 30.66 in West 8.0 mph 11.0 mph 75% 0.00 in 0.00 W/m2
21:39 -15.3 °F -20.9 °F 30.66 in West 8.0 mph 10.0 mph 75% 0.00 in 0.00 W/m2
21:44 -15.5 °F -20.8 °F 30.66 in West 9.0 mph 11.0 mph 76% 0.00 in 0.00 W/m2
21:49 -15.7 °F -21.3 °F 30.66 in West 9.0 mph 11.0 mph 75% 0.00 in 0.00 W/m2
21:54 -15.9 °F -21.2 °F 30.66 in West 9.0 mph 11.0 mph 76% 0.00 in 0.00 W/m2
21:59 -15.8 °F -21.1 °F 30.66 in WSW 9.0 mph 10.0 mph 76% 0.00 in 0.00 W/m2
22:04 -15.9 °F -21.2 °F 30.66 in West 6.0 mph 10.0 mph 76% 0.00 in 0.00 W/m2
22:09 -16.1 °F -21.4 °F 30.66 in West 7.0 mph 10.0 mph 76% 0.00 in 0.00 W/m2
22:14 -16.1 °F -21.4 °F 30.66 in West 5.0 mph 8.0 mph 76% 0.00 in 0.00 W/m2
22:19 -16.1 °F -21.4 °F 30.66 in West 7.0 mph 8.0 mph 76% 0.00 in 0.00 W/m2
22:24 -16.3 °F -21.9 °F 30.66 in WSW 9.0 mph 9.0 mph 75% 0.00 in 0.00 W/m2
22:29 -15.9 °F -21.2 °F 30.66 in West 9.0 mph 13.0 mph 76% 0.00 in 0.00 W/m2
22:34 -15.6 °F -20.9 °F 30.65 in West 9.0 mph 14.0 mph 76% 0.00 in 0.00 W/m2
22:39 -15.7 °F -21.3 °F 30.65 in West 12.0 mph 14.0 mph 75% 0.00 in 0.00 W/m2
22:44 -15.1 °F -20.7 °F 30.65 in West 11.0 mph 16.0 mph 75% 0.00 in 0.00 W/m2
22:49 -14.8 °F -20.4 °F 30.66 in West 12.0 mph 16.0 mph 75% 0.00 in 0.00 W/m2
22:54 -15.0 °F -20.9 °F 30.66 in West 13.0 mph 16.0 mph 74% 0.00 in 0.00 W/m2
22:59 -15.0 °F -20.9 °F 30.66 in West 15.0 mph 17.0 mph 74% 0.00 in 0.00 W/m2
23:04 -14.9 °F -20.8 °F 30.66 in West 13.0 mph 17.0 mph 74% 0.00 in 0.00 W/m2
23:09 -15.2 °F -21.1 °F 30.66 in West 13.0 mph 17.0 mph 74% 0.00 in 0.00 W/m2
23:14 -15.1 °F -21.0 °F 30.66 in West 13.0 mph 16.0 mph 74% 0.00 in 0.00 W/m2
23:19 -14.9 °F -20.8 °F 30.66 in West 14.0 mph 16.0 mph 74% 0.00 in 0.00 W/m2
23:24 -15.3 °F -21.2 °F 30.66 in West 15.0 mph 18.0 mph 74% 0.00 in 0.00 W/m2
23:29 -15.2 °F -21.1 °F 30.66 in West 11.0 mph 18.0 mph 74% 0.00 in 0.00 W/m2
23:34 -15.3 °F -21.2 °F 30.65 in West 13.0 mph 18.0 mph 74% 0.00 in 0.00 W/m2
23:39 -14.8 °F -20.4 °F 30.65 in WNW 12.0 mph 18.0 mph 75% 0.00 in 0.00 W/m2
23:44 -15.0 °F -20.6 °F 30.65 in West 10.0 mph 16.0 mph 75% 0.00 in 0.00 W/m2
23:49 -15.6 °F -21.5 °F 30.65 in West 13.0 mph 15.0 mph 74% 0.00 in 0.00 W/m2
23:54 -15.6 °F -21.2 °F 30.65 in West 12.0 mph 16.0 mph 75% 0.00 in 0.00 W/m2
23:59 -15.8 °F -21.4 °F 30.65 in WSW 11.0 mph 16.0 mph 75% 0.00 in 0.00 W/m2
Bismarck, North Dakota, USA
Compliments of Weather Underground - 4 mb